Time,TemperatureF,DewpointF,PressureIn,WindDirection,WindDirectionDegrees,WindSpeedMPH,WindSpeedGustMPH,Humidity,HourlyPrecipIn,Conditions,Clouds,dailyrainin,SoftwareType,DateUTC
2013-03-28 00:01:00,44.4,40.8,30.11,West,270,0.0,-999.0,87,-99.99,,,0.00,Acu-Link.com,2013-03-28 04:01:00,
2013-03-28 00:16:00,44.1,40.5,30.12,WNW,292,1.7,-999.0,87,-99.99,,,0.00,Acu-Link.com,2013-03-28 04:16:00,
2013-03-28 00:31:00,43.3,40.3,30.10,WNW,292,0.0,-999.0,89,-99.99,,,0.00,Acu-Link.com,2013-03-28 04:31:00,
2013-03-28 01:02:00,41.9,39.2,30.10,West,270,0.0,-999.0,90,-99.99,,,0.00,Acu-Link.com,2013-03-28 05:02:00,
2013-03-28 01:17:00,41.4,39.5,30.10,WSW,247,0.0,-999.0,93,-99.99,,,0.00,Acu-Link.com,2013-03-28 05:17:00,
2013-03-28 01:32:00,41.2,39.9,30.11,South,180,0.0,-999.0,95,-99.99,,,0.00,Acu-Link.com,2013-03-28 05:32:00,
2013-03-28 01:47:00,40.5,39.2,30.10,SE,135,0.0,-999.0,95,-99.99,,,0.00,Acu-Link.com,2013-03-28 05:47:00,
2013-03-28 02:03:00,40.3,39.3,30.10,SSW,202,0.0,-999.0,96,-99.99,,,0.00,Acu-Link.com,2013-03-28 06:03:00,
2013-03-28 02:18:00,40.1,39.1,30.10,WSW,247,0.0,-999.0,96,-99.99,,,0.00,Acu-Link.com,2013-03-28 06:18:00,
2013-03-28 02:33:00,40.8,40.5,30.10,SW,225,0.0,-999.0,99,-99.99,,,0.00,Acu-Link.com,2013-03-28 06:33:00,
2013-03-28 02:48:00,39.7,39.2,30.10,West,270,0.0,-999.0,98,-99.99,,,0.00,Acu-Link.com,2013-03-28 06:48:00,
2013-03-28 03:04:00,39.9,39.4,30.09,WSW,247,0.0,-999.0,98,-99.99,,,0.00,Acu-Link.com,2013-03-28 07:04:00,
2013-03-28 03:19:00,40.5,40.2,30.09,West,270,0.0,-999.0,99,-99.99,,,0.00,Acu-Link.com,2013-03-28 07:19:00,
2013-03-28 03:34:00,40.5,40.2,30.09,West,270,0.0,-999.0,99,-99.99,,,0.00,Acu-Link.com,2013-03-28 07:34:00,
2013-03-28 03:49:00,41.2,40.9,30.08,West,270,2.7,-999.0,99,-99.99,,,0.00,Acu-Link.com,2013-03-28 07:49:00,
2013-03-28 04:05:00,41.9,41.1,30.08,NW,315,3.2,-999.0,97,-99.99,,,0.00,Acu-Link.com,2013-03-28 08:05:00,
2013-03-28 04:20:00,41.7,40.6,30.08,WNW,292,2.2,-999.0,96,-99.99,,,0.00,Acu-Link.com,2013-03-28 08:20:00,
2013-03-28 04:35:00,41.9,40.0,30.08,West,270,2.2,-999.0,93,-99.99,,,0.00,Acu-Link.com,2013-03-28 08:35:00,
2013-03-28 04:50:00,42.3,40.1,30.08,WNW,292,3.7,-999.0,92,-99.99,,,0.00,Acu-Link.com,2013-03-28 08:50:00,
2013-03-28 05:05:00,42.4,40.0,30.07,West,270,2.7,-999.0,91,-99.99,,,0.00,Acu-Link.com,2013-03-28 09:05:00,
2013-03-28 05:20:00,42.1,39.9,30.07,NW,315,3.7,-999.0,92,-99.99,,,0.00,Acu-Link.com,2013-03-28 09:20:00,
2013-03-28 05:36:00,41.7,39.8,30.08,NW,315,3.2,-999.0,93,-99.99,,,0.00,Acu-Link.com,2013-03-28 09:36:00,
2013-03-28 06:06:00,40.1,38.2,30.09,WSW,247,1.1,-999.0,93,-99.99,,,0.00,Acu-Link.com,2013-03-28 10:06:00,
2013-03-28 06:21:00,39.7,37.8,30.10,SW,225,0.0,-999.0,93,-99.99,,,0.00,Acu-Link.com,2013-03-28 10:21:00,
2013-03-28 06:36:00,39.4,37.8,30.09,West,270,0.0,-999.0,94,-99.99,,,0.00,Acu-Link.com,2013-03-28 10:36:00,
2013-03-28 06:52:00,39.2,37.6,30.09,West,270,0.0,-999.0,94,-99.99,,,0.00,Acu-Link.com,2013-03-28 10:52:00,
2013-03-28 07:07:00,39.2,37.9,30.10,NW,315,2.2,-999.0,95,-99.99,,,0.00,Acu-Link.com,2013-03-28 11:07:00,
2013-03-28 07:37:00,40.3,38.2,30.09,West,270,2.7,-999.0,92,-99.99,,,0.00,Acu-Link.com,2013-03-28 11:37:00,
2013-03-28 07:53:00,43.0,39.4,30.10,NW,315,2.7,-999.0,87,-99.99,,,0.00,Acu-Link.com,2013-03-28 11:53:00,
2013-03-28 08:08:00,44.6,38.8,30.10,WNW,292,2.7,-999.0,80,-99.99,,,0.00,Acu-Link.com,2013-03-28 12:08:00,
2013-03-28 08:23:00,47.1,38.5,30.11,WNW,292,3.2,-999.0,72,-99.99,,,0.00,Acu-Link.com,2013-03-28 12:23:00,
2013-03-28 08:38:00,49.5,39.4,30.10,NW,315,3.2,-999.0,68,-99.99,,,0.00,Acu-Link.com,2013-03-28 12:38:00,
2013-03-28 08:53:00,50.7,37.3,30.12,NNE,22,4.2,-999.0,60,-99.99,,,0.00,Acu-Link.com,2013-03-28 12:53:00,
2013-03-28 09:09:00,51.4,35.8,30.11,NNW,337,5.8,-999.0,55,-99.99,,,0.00,Acu-Link.com,2013-03-28 13:09:00,
2013-03-28 09:24:00,52.3,37.1,30.12,NNW,337,5.3,-999.0,56,-99.99,,,0.00,Acu-Link.com,2013-03-28 13:24:00,
2013-03-28 09:39:00,53.1,35.9,30.13,North,0,5.3,-999.0,52,-99.99,,,0.00,Acu-Link.com,2013-03-28 13:39:00,
2013-03-28 09:54:00,55.0,35.1,30.13,WNW,292,5.3,-999.0,47,-99.99,,,0.00,Acu-Link.com,2013-03-28 13:54:00,
2013-03-28 10:09:00,57.0,34.7,30.13,NNW,337,4.2,-999.0,43,-99.99,,,0.00,Acu-Link.com,2013-03-28 14:09:00,
2013-03-28 10:25:00,58.1,33.3,30.13,WNW,292,3.7,-999.0,39,-99.99,,,0.00,Acu-Link.com,2013-03-28 14:25:00,
2013-03-28 10:40:00,58.5,32.3,30.13,NNW,337,7.3,-999.0,37,-99.99,,,0.00,Acu-Link.com,2013-03-28 14:40:00,
2013-03-28 10:55:00,60.3,31.8,30.15,NW,315,4.2,-999.0,34,-99.99,,,0.00,Acu-Link.com,2013-03-28 14:55:00,
2013-03-28 11:10:00,59.5,31.8,30.14,NNW,337,3.2,-999.0,35,-99.99,,,0.00,Acu-Link.com,2013-03-28 15:10:00,
2013-03-28 11:26:00,61.2,30.3,30.13,North,0,4.7,-999.0,31,-99.99,,,0.00,Acu-Link.com,2013-03-28 15:26:00,
2013-03-28 11:41:00,63.7,31.7,30.14,NNW,337,4.2,-999.0,30,-99.99,,,0.00,Acu-Link.com,2013-03-28 15:41:00,
2013-03-28 11:56:00,62.2,29.6,30.13,East,90,2.2,-999.0,29,-99.99,,,0.00,Acu-Link.com,2013-03-28 15:56:00,
2013-03-28 12:11:00,65.3,32.2,30.12,NNW,337,5.3,-999.0,29,-99.99,,,0.00,Acu-Link.com,2013-03-28 16:11:00,
2013-03-28 12:57:00,66.6,29.7,30.11,West,270,8.3,-999.0,25,-99.99,,,0.00,Acu-Link.com,2013-03-28 16:57:00,
2013-03-28 13:12:00,66.2,27.3,30.10,NW,315,6.3,-999.0,23,-99.99,,,0.00,Acu-Link.com,2013-03-28 17:12:00,
2013-03-28 13:27:00,68.2,29.0,30.09,NW,315,11.4,-999.0,23,-99.99,,,0.00,Acu-Link.com,2013-03-28 17:27:00,
2013-03-28 13:42:00,66.9,29.9,30.08,West,270,4.7,-999.0,25,-99.99,,,0.00,Acu-Link.com,2013-03-28 17:42:00,
2013-03-28 13:58:00,69.3,28.8,30.08,NNE,22,2.7,-999.0,22,-99.99,,,0.00,Acu-Link.com,2013-03-28 17:58:00,
2013-03-28 14:13:00,68.4,30.2,30.08,WSW,247,6.3,-999.0,24,-99.99,,,0.00,Acu-Link.com,2013-03-28 18:13:00,
2013-03-28 14:28:00,69.3,28.8,30.06,WNW,292,7.8,-999.0,22,-99.99,,,0.00,Acu-Link.com,2013-03-28 18:28:00,
2013-03-28 14:43:00,70.0,34.5,30.05,SW,225,3.2,-999.0,27,-99.99,,,0.00,Acu-Link.com,2013-03-28 18:43:00,
2013-03-28 14:58:00,70.2,31.7,30.05,WNW,292,2.7,-999.0,24,-99.99,,,0.00,Acu-Link.com,2013-03-28 18:58:00,
2013-03-28 15:14:00,70.3,32.8,30.04,West,270,7.3,-999.0,25,-99.99,,,0.00,Acu-Link.com,2013-03-28 19:14:00,
2013-03-28 15:29:00,70.7,30.0,30.03,South,180,4.2,-999.0,22,-99.99,,,0.00,Acu-Link.com,2013-03-28 19:29:00,
2013-03-28 15:44:00,70.9,31.3,30.03,NW,315,6.3,-999.0,23,-99.99,,,0.00,Acu-Link.com,2013-03-28 19:44:00,
2013-03-28 15:59:00,71.2,32.6,30.03,West,270,4.7,-999.0,24,-99.99,,,0.00,Acu-Link.com,2013-03-28 19:59:00,
2013-03-28 16:15:00,72.1,31.2,30.01,SW,225,5.8,-999.0,22,-99.99,,,0.00,Acu-Link.com,2013-03-28 20:15:00,
2013-03-28 16:30:00,71.8,33.1,30.01,West,270,6.3,-999.0,24,-99.99,,,0.00,Acu-Link.com,2013-03-28 20:30:00,
2013-03-28 16:45:00,71.2,31.5,30.02,NW,315,2.7,-999.0,23,-99.99,,,0.00,Acu-Link.com,2013-03-28 20:45:00,
2013-03-28 17:00:00,75.0,31.2,30.01,WNW,292,1.1,-999.0,20,-99.99,,,0.00,Acu-Link.com,2013-03-28 21:00:00,
2013-03-28 17:15:00,71.4,32.7,30.01,WNW,292,4.2,-999.0,24,-99.99,,,0.00,Acu-Link.com,2013-03-28 21:15:00,
2013-03-28 17:31:00,71.6,32.9,30.02,NE,45,2.2,-999.0,24,-99.99,,,0.00,Acu-Link.com,2013-03-28 21:31:00,
2013-03-28 18:16:00,73.6,31.3,30.02,North,0,4.7,-999.0,21,-99.99,,,0.00,Acu-Link.com,2013-03-28 22:16:00,
2013-03-28 18:31:00,72.7,32.8,30.02,North,0,5.8,-999.0,23,-99.99,,,0.00,Acu-Link.com,2013-03-28 22:31:00,
2013-03-28 18:47:00,72.7,31.7,30.04,NNE,22,4.2,-999.0,22,-99.99,,,0.00,Acu-Link.com,2013-03-28 22:47:00,
2013-03-28 19:17:00,68.4,32.2,30.05,NNW,337,4.7,-999.0,26,-99.99,,,0.00,Acu-Link.com,2013-03-28 23:17:00,
2013-03-28 19:32:00,66.9,33.6,30.04,North,0,1.7,-999.0,29,-99.99,,,0.00,Acu-Link.com,2013-03-28 23:32:00,
2013-03-28 19:47:00,65.1,32.9,30.05,NE,45,0.0,-999.0,30,-99.99,,,0.00,Acu-Link.com,2013-03-28 23:47:00,
2013-03-28 20:18:00,61.5,39.4,30.06,SE,135,4.7,-999.0,44,-99.99,,,0.00,Acu-Link.com,2013-03-29 00:18:00,
2013-03-28 20:33:00,60.4,41.2,30.07,East,90,2.7,-999.0,49,-99.99,,,0.00,Acu-Link.com,2013-03-29 00:33:00,
2013-03-28 20:48:00,59.4,41.8,30.08,ESE,112,7.3,-999.0,52,-99.99,,,0.00,Acu-Link.com,2013-03-29 00:48:00,
2013-03-28 21:04:00,58.3,42.2,30.08,SSE,157,3.7,-999.0,55,-99.99,,,0.00,Acu-Link.com,2013-03-29 01:04:00,
2013-03-28 21:19:00,57.4,42.3,30.09,ESE,112,2.7,-999.0,57,-99.99,,,0.00,Acu-Link.com,2013-03-29 01:19:00,
2013-03-28 21:34:00,56.3,42.2,30.09,East,90,2.2,-999.0,59,-99.99,,,0.00,Acu-Link.com,2013-03-29 01:34:00,
2013-03-28 21:49:00,55.4,42.2,30.10,SE,135,1.7,-999.0,61,-99.99,,,0.00,Acu-Link.com,2013-03-29 01:49:00,
2013-03-28 22:04:00,54.7,42.4,30.10,SE,135,1.7,-999.0,63,-99.99,,,0.00,Acu-Link.com,2013-03-29 02:04:00,
2013-03-28 22:20:00,54.0,42.5,30.11,East,90,2.2,-999.0,65,-99.99,,,0.00,Acu-Link.com,2013-03-29 02:20:00,
2013-03-28 22:35:00,53.4,42.3,30.11,ESE,112,2.2,-999.0,66,-99.99,,,0.00,Acu-Link.com,2013-03-29 02:35:00,
2013-03-28 22:50:00,52.7,42.1,30.11,ESE,112,0.0,-999.0,67,-99.99,,,0.00,Acu-Link.com,2013-03-29 02:50:00,
2013-03-28 23:05:00,52.0,42.9,30.12,West,270,0.0,-999.0,71,-99.99,,,0.00,Acu-Link.com,2013-03-29 03:05:00,
2013-03-28 23:20:00,51.1,43.8,30.13,West,270,0.0,-999.0,76,-99.99,,,0.00,Acu-Link.com,2013-03-29 03:20:00,
2013-03-28 23:36:00,50.0,44.4,30.12,West,270,0.0,-999.0,81,-99.99,,,0.00,Acu-Link.com,2013-03-29 03:36:00,